Terminal Aerodrome Forecast
Issued by NWS Raleigh/Durham, NC

Home | Current Version | Previous Version | Text Only | Print | Product List | Glossary On
Versions: 1 2 3 4 5 6 7 8 9 10 11 12 13 14 15 16 17 18 19 20 21 22 23 24 25 26 27 28 29 30 31 32 33
000
FTUS42 KRAH 301120
TAFFAY
TAF
KFAY 301120Z 3012/3112 06004KT P6SM OVC090
     FM310800 16009G15KT 6SM -RA OVC015 PROB30 3108/3111 6SM -TSRA
      BKN015CB=

USA.gov is the U.S. government's official web portal to all federal, state and local government web resources and services.